createdAt,value
2018-11-28T00:01:20.167Z,12.57
2018-11-28T00:04:11.695Z,12.40
2018-11-28T00:06:44.728Z,12.83
2018-11-28T00:09:17.796Z,13.50
2018-11-28T00:11:50.769Z,13.40
2018-11-28T00:14:23.830Z,13.13
2018-11-28T00:16:56.699Z,13.20
2018-11-28T00:19:29.841Z,12.97
2018-11-28T00:22:02.847Z,13.30
2018-11-28T00:24:36.069Z,14.00
2018-11-28T00:27:09.018Z,14.20
2018-11-28T00:29:42.156Z,13.37
2018-11-28T00:32:15.132Z,14.10
2018-11-28T00:34:47.067Z,14.10
2018-11-28T00:37:19.048Z,13.73
2018-11-28T00:39:53.321Z,14.70
2018-11-28T00:42:32.661Z,14.93
2018-11-28T00:45:05.786Z,13.90
2018-11-28T00:47:38.771Z,13.07
2018-11-28T00:50:17.481Z,14.27
2018-11-28T00:52:50.666Z,13.10
2018-11-28T00:55:42.362Z,14.10
2018-11-28T00:58:52.261Z,12.87
2018-11-28T01:01:44.647Z,13.13
2018-11-28T01:04:46.562Z,13.13
2018-11-28T01:07:57.722Z,13.67
2018-11-28T01:14:10.865Z,12.80
2018-11-28T01:17:24.040Z,12.83
2018-11-28T01:20:35.669Z,12.67
2018-11-28T01:23:28.403Z,11.97
2018-11-28T01:26:19.974Z,14.27
2018-11-28T01:29:13.569Z,13.20
2018-11-28T01:32:06.993Z,12.00
2018-11-28T01:34:58.651Z,12.97
2018-11-28T01:38:09.357Z,13.03
2018-11-28T01:41:00.921Z,12.47
2018-11-28T01:43:52.531Z,12.07
2018-11-28T01:47:03.411Z,12.73
2018-11-28T01:49:55.796Z,13.10
2018-11-28T01:52:48.076Z,12.83
2018-11-28T01:55:39.660Z,13.23
2018-11-28T01:58:33.774Z,11.83
2018-11-28T02:04:55.142Z,13.10
2018-11-28T02:07:47.455Z,12.17
2018-11-28T02:10:58.498Z,12.63
2018-11-28T02:13:50.193Z,11.90
2018-11-28T02:17:02.508Z,12.37
2018-11-28T02:19:53.092Z,13.17
2018-11-28T02:22:45.737Z,11.73
2018-11-28T02:25:56.892Z,12.70
2018-11-28T02:28:49.375Z,12.77
2018-11-28T02:31:53.100Z,11.97
2018-11-28T02:34:45.893Z,11.93
2018-11-28T02:41:14.943Z,10.63
2018-11-28T02:44:26.921Z,12.23
2018-11-28T02:47:18.859Z,12.07
2018-11-28T02:50:10.975Z,11.37
2018-11-28T02:53:02.423Z,11.60
2018-11-28T02:58:51.991Z,12.27
2018-11-28T03:01:43.469Z,11.63
2018-11-28T03:04:35.089Z,11.73
2018-11-28T03:07:45.823Z,11.27
2018-11-28T03:10:37.362Z,11.43
2018-11-28T03:13:28.866Z,12.17
2018-11-28T03:16:38.786Z,12.37
2018-11-28T03:19:49.927Z,11.27
2018-11-28T03:22:41.667Z,11.13
2018-11-28T03:25:33.654Z,10.97
2018-11-28T03:28:25.981Z,11.20
2018-11-28T03:31:17.497Z,12.23
2018-11-28T03:34:09.389Z,12.40
2018-11-28T03:37:00.968Z,12.37
2018-11-28T03:39:52.834Z,11.40
2018-11-28T03:42:44.578Z,11.70
2018-11-28T03:45:36.099Z,10.83
2018-11-28T03:48:27.949Z,10.97
2018-11-28T03:51:19.388Z,11.53
2018-11-28T03:54:10.961Z,10.77
2018-11-28T03:57:03.567Z,11.30
2018-11-28T04:00:14.415Z,10.73
2018-11-28T04:03:25.255Z,10.87
2018-11-28T04:06:35.316Z,10.60
2018-11-28T04:09:26.839Z,11.30
2018-11-28T04:12:18.359Z,10.57
2018-11-28T04:15:30.305Z,10.53
2018-11-28T04:18:42.093Z,10.93
2018-11-28T04:21:33.648Z,10.03
2018-11-28T04:24:25.159Z,10.37
2018-11-28T04:30:34.338Z,9.87
2018-11-28T04:33:25.909Z,10.00
2018-11-28T04:36:17.347Z,10.47
2018-11-28T04:39:10.795Z,9.73
2018-11-28T04:42:02.403Z,9.43
2018-11-28T04:44:53.984Z,8.73
2018-11-28T04:47:45.985Z,9.50
2018-11-28T04:50:37.567Z,9.90
2018-11-28T04:53:29.212Z,9.53
2018-11-28T04:56:21.375Z,9.93
2018-11-28T04:59:12.897Z,9.53
2018-11-28T05:02:04.524Z,8.80
2018-11-28T05:04:56.029Z,10.57
2018-11-28T05:07:51.333Z,10.23
2018-11-28T05:10:42.895Z,10.47
2018-11-28T05:13:34.493Z,10.10
2018-11-28T05:16:26.081Z,10.23
2018-11-28T05:19:17.648Z,10.17
2018-11-28T05:25:51.614Z,10.23
2018-11-28T05:28:32.017Z,9.93
2018-11-28T05:31:22.800Z,10.43
2018-11-28T05:34:13.568Z,10.13
2018-11-28T05:37:04.406Z,10.17
2018-11-28T05:43:11.212Z,9.80
2018-11-28T05:46:02.590Z,9.90
2018-11-28T05:49:15.183Z,10.77
2018-11-28T05:55:17.001Z,9.90
2018-11-28T05:58:08.382Z,10.47
2018-11-28T06:00:59.144Z,10.20
2018-11-28T06:03:51.498Z,10.20
2018-11-28T06:06:42.926Z,9.67
2018-11-28T06:09:33.735Z,9.73
2018-11-28T06:12:24.525Z,9.87
2018-11-28T06:15:15.466Z,10.50
2018-11-28T06:18:07.137Z,9.70
2018-11-28T06:20:57.914Z,11.57
2018-11-28T06:23:48.729Z,11.17
2018-11-28T06:26:39.505Z,10.10
2018-11-28T06:29:30.316Z,10.90
2018-11-28T06:32:21.341Z,10.20
2018-11-28T06:35:14.073Z,9.93
2018-11-28T06:38:04.835Z,10.53
2018-11-28T06:40:56.028Z,10.63
2018-11-28T06:43:46.866Z,9.60
2018-11-28T06:46:37.610Z,10.43
2018-11-28T06:49:28.407Z,10.97
2018-11-28T06:52:39.630Z,10.50
2018-11-28T06:55:30.352Z,9.57
2018-11-28T06:58:21.119Z,10.60
2018-11-28T07:01:11.876Z,9.83
2018-11-28T07:04:02.722Z,10.07
2018-11-28T07:06:54.246Z,9.50
2018-11-28T07:15:59.908Z,10.17
2018-11-28T07:19:10.098Z,9.77
2018-11-28T07:21:54.137Z,9.33
2018-11-28T07:24:44.911Z,10.03
2018-11-28T07:27:35.683Z,9.07
2018-11-28T07:30:26.425Z,9.33
2018-11-28T07:33:17.196Z,10.73
2018-11-28T07:36:08.408Z,9.50
2018-11-28T07:38:59.494Z,10.60
2018-11-28T07:41:50.241Z,9.73
2018-11-28T07:44:41.122Z,9.90
2018-11-28T07:47:51.074Z,9.80
2018-11-28T07:50:42.317Z,9.77
2018-11-28T07:53:33.045Z,9.57
2018-11-28T07:56:25.321Z,9.67
2018-11-28T07:59:16.070Z,9.87
2018-11-28T08:02:07.017Z,9.10
2018-11-28T08:04:57.800Z,9.57
2018-11-28T08:07:48.538Z,10.00
2018-11-28T08:10:39.436Z,11.30
2018-11-28T08:13:31.241Z,10.13
2018-11-28T08:16:22.814Z,9.73
2018-11-28T08:19:13.576Z,10.83
2018-11-28T08:22:04.531Z,9.53
2018-11-28T08:24:55.470Z,9.93
2018-11-28T08:28:06.404Z,9.30
2018-11-28T08:31:16.386Z,9.93
2018-11-28T08:34:07.907Z,10.10
2018-11-28T08:36:58.970Z,10.07
2018-11-28T08:39:49.731Z,9.97
2018-11-28T08:42:41.578Z,10.60
2018-11-28T08:45:32.289Z,9.37
2018-11-28T08:48:23.018Z,9.57
2018-11-28T08:51:13.754Z,9.90
2018-11-28T08:54:04.563Z,10.93
2018-11-28T08:56:55.444Z,10.20
2018-11-28T09:02:59.191Z,9.80
2018-11-28T09:05:50.352Z,10.17
2018-11-28T09:09:01.198Z,10.43
2018-11-28T09:12:27.213Z,9.57
2018-11-28T09:15:24.585Z,9.90
2018-11-28T09:18:15.924Z,10.07
2018-11-28T09:21:07.795Z,10.07
2018-11-28T09:24:18.814Z,10.83
2018-11-28T09:27:29.208Z,10.73
2018-11-28T09:30:40.900Z,9.73
2018-11-28T09:33:31.641Z,10.73
2018-11-28T09:36:23.400Z,10.60
2018-11-28T09:39:14.135Z,10.80
2018-11-28T09:45:18.144Z,12.10
2018-11-28T09:48:09.180Z,12.37
2018-11-28T09:51:00.345Z,12.27
2018-11-28T09:53:52.756Z,12.30
2018-11-28T09:57:03.430Z,13.37
2018-11-28T09:59:54.381Z,14.40
2018-11-28T10:02:45.642Z,14.43
2018-11-28T10:05:56.003Z,14.97
2018-11-28T10:08:47.807Z,16.50
2018-11-28T10:11:57.833Z,16.70
2018-11-28T10:14:48.606Z,16.87
2018-11-28T10:17:40.389Z,20.00
2018-11-28T10:20:31.761Z,20.73
2018-11-28T10:23:22.926Z,22.37
2018-11-28T10:26:13.696Z,20.60
2018-11-28T10:29:04.665Z,21.40
2018-11-28T10:31:55.549Z,22.07
2018-11-28T10:35:06.583Z,24.40
2018-11-28T10:37:59.450Z,23.20
2018-11-28T10:41:08.738Z,25.00
2018-11-28T10:44:00.098Z,23.37
2018-11-28T10:46:50.824Z,24.33
2018-11-28T10:50:01.114Z,24.33
2018-11-28T10:55:49.858Z,23.07
2018-11-28T11:01:56.371Z,22.33
2018-11-28T11:05:06.007Z,23.50
2018-11-28T11:08:15.351Z,23.07
2018-11-28T11:11:24.985Z,21.83
2018-11-28T11:14:35.453Z,22.67
2018-11-28T11:20:45.432Z,22.47
2018-11-28T11:23:36.214Z,20.97
2018-11-28T11:26:27.246Z,20.47
2018-11-28T11:29:18.088Z,22.33
2018-11-28T11:32:09.081Z,21.53
2018-11-28T11:34:59.829Z,21.37
2018-11-28T11:37:51.298Z,21.80
2018-11-28T11:43:42.492Z,22.00
2018-11-28T11:46:34.368Z,21.63
2018-11-28T11:49:25.275Z,21.67
2018-11-28T11:55:47.267Z,21.73
2018-11-28T11:58:38.019Z,21.40
2018-11-28T12:01:28.903Z,20.83
2018-11-28T12:16:38.902Z,20.60
2018-11-28T12:19:30.488Z,19.50
2018-11-28T12:22:55.946Z,20.23
2018-11-28T12:25:53.003Z,20.43
2018-11-28T12:29:08.332Z,19.30
2018-11-28T12:31:59.135Z,20.30
2018-11-28T12:38:05.717Z,18.63
2018-11-28T12:41:16.181Z,18.87
2018-11-28T12:44:08.271Z,20.03
2018-11-28T12:49:58.039Z,19.40
2018-11-28T12:52:48.890Z,19.03
2018-11-28T12:55:40.431Z,17.63
2018-11-28T12:58:51.394Z,18.43
2018-11-28T13:01:42.112Z,18.27
2018-11-28T13:04:33.624Z,17.67
2018-11-28T13:07:24.413Z,18.00
2018-11-28T13:10:47.428Z,18.03
2018-11-28T13:13:58.472Z,16.10
2018-11-28T13:16:49.292Z,16.50
2018-11-28T13:20:00.471Z,16.60
2018-11-28T13:23:11.878Z,17.00
2018-11-28T13:26:02.732Z,15.97
2018-11-28T13:28:54.994Z,17.27
2018-11-28T13:31:45.875Z,16.77
2018-11-28T13:34:36.666Z,16.50
2018-11-28T13:37:48.179Z,16.33
2018-11-28T13:40:39.804Z,16.07
2018-11-28T13:46:48.225Z,16.57
2018-11-28T13:49:59.941Z,15.73
2018-11-28T13:53:10.391Z,16.60
2018-11-28T13:59:53.797Z,16.63
2018-11-28T14:06:14.603Z,16.07
2018-11-28T14:09:26.306Z,16.00
2018-11-28T14:12:49.449Z,16.17
2018-11-28T14:15:29.563Z,16.63
2018-11-28T14:18:41.564Z,16.37
2018-11-28T14:21:52.133Z,16.70
2018-11-28T14:24:43.781Z,16.77
2018-11-28T14:27:35.193Z,15.70
2018-11-28T14:30:26.324Z,15.20
2018-11-28T14:33:17.853Z,17.40
2018-11-28T14:36:09.230Z,15.90
2018-11-28T14:42:11.222Z,15.67
2018-11-28T14:45:22.045Z,17.60
2018-11-28T14:54:33.280Z,15.83
2018-11-28T14:57:24.917Z,15.60
2018-11-28T15:00:35.143Z,16.70
2018-11-28T15:03:27.317Z,15.37
2018-11-28T15:06:38.564Z,17.97
2018-11-28T15:09:50.003Z,16.77
2018-11-28T15:13:01.729Z,17.40
2018-11-28T15:15:53.805Z,16.10
2018-11-28T15:18:44.890Z,16.90
2018-11-28T15:21:35.600Z,17.17
2018-11-28T15:24:46.182Z,17.13
2018-11-28T15:27:36.940Z,16.70
2018-11-28T15:30:28.496Z,17.07
2018-11-28T15:33:38.968Z,18.00
2018-11-28T15:36:29.776Z,18.40
2018-11-28T15:39:20.515Z,17.50
2018-11-28T15:42:31.362Z,16.37
2018-11-28T15:45:22.835Z,17.87
2018-11-28T15:48:14.096Z,18.63
2018-11-28T15:51:04.950Z,18.37
2018-11-28T15:54:30.553Z,17.63
2018-11-28T15:57:26.891Z,16.93
2018-11-28T16:00:36.780Z,18.17
2018-11-28T16:03:27.641Z,17.97
2018-11-28T16:06:18.608Z,18.70
2018-11-28T16:09:30.038Z,18.90
2018-11-28T16:12:20.883Z,18.00
2018-11-28T16:15:13.719Z,18.23
2018-11-28T16:18:04.885Z,18.00
2018-11-28T16:20:55.963Z,19.07
2018-11-28T16:23:47.830Z,19.00
2018-11-28T16:26:39.206Z,17.90
2018-11-28T16:29:29.950Z,18.80
2018-11-28T16:32:20.970Z,18.27
2018-11-28T16:35:32.414Z,18.93
2018-11-28T16:38:23.262Z,18.80
2018-11-28T16:41:13.971Z,18.13
2018-11-28T16:44:05.636Z,18.30
2018-11-28T16:46:57.457Z,17.77
2018-11-28T16:49:49.803Z,18.60
2018-11-28T16:52:41.665Z,18.60
2018-11-28T16:55:32.380Z,19.37
2018-11-28T16:58:23.335Z,18.40
2018-11-28T17:01:14.413Z,17.90
2018-11-28T17:04:24.901Z,18.47
2018-11-28T17:07:16.111Z,19.33
2018-11-28T17:10:29.252Z,19.37
2018-11-28T17:13:20.010Z,18.47
2018-11-28T17:16:31.342Z,19.13
2018-11-28T17:19:22.500Z,18.43
2018-11-28T17:22:13.287Z,18.00
2018-11-28T17:25:04.730Z,17.67
2018-11-28T17:27:55.674Z,19.67
2018-11-28T17:30:46.493Z,19.60
2018-11-28T17:33:55.958Z,18.10
2018-11-28T17:36:46.893Z,18.53
2018-11-28T17:39:37.681Z,18.27
2018-11-28T17:42:28.465Z,18.57
2018-11-28T17:45:39.092Z,18.23
2018-11-28T17:48:31.252Z,17.77
2018-11-28T17:51:23.076Z,19.57
2018-11-28T17:54:15.775Z,18.00
2018-11-28T17:57:25.563Z,18.33
2018-11-28T18:00:48.655Z,17.93
2018-11-28T18:03:29.852Z,18.00
2018-11-28T18:06:41.178Z,17.83
2018-11-28T18:09:31.919Z,17.40
2018-11-28T18:12:22.729Z,18.83
2018-11-28T18:15:13.500Z,17.43
2018-11-28T18:18:04.425Z,17.77
2018-11-28T18:20:56.101Z,17.70
2018-11-28T18:24:06.175Z,18.03
2018-11-28T18:26:56.921Z,17.77
2018-11-28T18:29:47.819Z,18.90
2018-11-28T18:32:38.607Z,19.43
2018-11-28T18:35:29.347Z,19.67
2018-11-28T18:38:21.341Z,19.67
2018-11-28T18:41:12.108Z,20.10
2018-11-28T18:44:03.559Z,19.40
2018-11-28T18:46:54.553Z,19.03
2018-11-28T18:49:46.234Z,19.67
2018-11-28T18:52:37.652Z,19.10
2018-11-28T18:55:48.335Z,19.33
2018-11-28T19:01:35.971Z,19.60
2018-11-28T19:04:26.707Z,19.87
2018-11-28T19:07:17.680Z,18.53
2018-11-28T19:10:15.744Z,19.73
2018-11-28T19:13:26.823Z,20.77
2018-11-28T19:16:18.094Z,19.57
2018-11-28T19:19:09.101Z,19.93
2018-11-28T19:22:00.577Z,18.63
2018-11-28T19:24:51.749Z,19.87
2018-11-28T19:28:02.757Z,19.03
2018-11-28T19:31:12.851Z,17.87
2018-11-28T19:34:04.926Z,19.13
2018-11-28T19:36:55.847Z,19.67
2018-11-28T19:39:47.107Z,19.27
2018-11-28T19:42:37.868Z,18.70
2018-11-28T19:45:30.014Z,19.97
2018-11-28T19:48:21.414Z,19.53
2018-11-28T19:51:12.899Z,19.03
2018-11-28T19:54:03.726Z,19.47
2018-11-28T19:56:55.699Z,18.47
2018-11-28T20:00:06.419Z,18.20
2018-11-28T20:02:58.604Z,18.50
2018-11-28T20:05:49.831Z,18.93
2018-11-28T20:09:01.005Z,18.30
2018-11-28T20:11:52.619Z,18.70
2018-11-28T20:14:44.550Z,17.73
2018-11-28T20:17:35.895Z,19.00
2018-11-28T20:21:00.319Z,18.03
2018-11-28T20:23:37.847Z,17.00
2018-11-28T20:26:48.309Z,18.80
2018-11-28T20:29:59.319Z,19.10
2018-11-28T20:32:41.893Z,19.33
2018-11-28T20:35:33.633Z,18.53
2018-11-28T20:38:45.090Z,18.27
2018-11-28T20:41:36.596Z,17.70
2018-11-28T20:44:30.257Z,18.27
2018-11-28T20:47:22.128Z,18.00
2018-11-28T20:50:33.691Z,18.43
2018-11-28T20:53:45.353Z,18.97
2018-11-28T20:56:38.502Z,17.40
2018-11-28T20:59:50.744Z,18.37
2018-11-28T21:03:01.889Z,17.23
2018-11-28T21:05:53.680Z,17.07
2018-11-28T21:08:46.786Z,18.63
2018-11-28T21:11:38.023Z,18.10
2018-11-28T21:14:48.536Z,18.63
2018-11-28T21:17:40.541Z,18.87
2018-11-28T21:20:32.101Z,18.40
2018-11-28T21:23:43.696Z,17.77
2018-11-28T21:26:34.876Z,18.03
2018-11-28T21:29:25.656Z,19.17
2018-11-28T21:32:16.404Z,17.70
2018-11-28T21:35:09.152Z,17.63
2018-11-28T21:38:01.076Z,17.97
2018-11-28T21:41:11.413Z,18.40
2018-11-28T21:44:34.867Z,17.43
2018-11-28T21:47:34.620Z,17.47
2018-11-28T21:50:41.976Z,17.00
2018-11-28T21:53:41.406Z,18.30
2018-11-28T21:56:32.264Z,17.97
2018-11-28T21:59:23.531Z,18.50
2018-11-28T22:03:01.235Z,19.13
2018-11-28T22:06:15.434Z,17.73
2018-11-28T22:12:37.697Z,18.97
2018-11-28T22:15:48.515Z,18.87
2018-11-28T22:18:59.243Z,17.47
2018-11-28T22:25:01.540Z,17.80
2018-11-28T22:28:12.534Z,18.47
2018-11-28T22:31:04.185Z,17.53
2018-11-28T22:34:15.094Z,18.30
2018-11-28T22:37:06.784Z,17.37
2018-11-28T22:40:02.888Z,17.90
2018-11-28T22:43:13.024Z,17.23
2018-11-28T22:46:23.992Z,18.90
2018-11-28T22:49:15.495Z,18.27
2018-11-28T22:52:08.860Z,17.53
2018-11-28T22:55:00.971Z,17.93
2018-11-28T22:57:53.080Z,18.53
2018-11-28T23:01:04.121Z,18.17
2018-11-28T23:04:15.550Z,17.43
2018-11-28T23:07:07.482Z,17.90
2018-11-28T23:09:59.003Z,17.40
2018-11-28T23:13:09.039Z,16.83
2018-11-28T23:16:00.541Z,18.23
2018-11-28T23:19:11.287Z,17.47
2018-11-28T23:22:20.558Z,17.63
2018-11-28T23:25:14.249Z,16.90
2018-11-28T23:28:25.650Z,16.37
2018-11-28T23:31:18.376Z,18.60
2018-11-28T23:37:22.109Z,17.87
2018-11-28T23:44:21.422Z,18.50
2018-11-28T23:47:14.320Z,18.03
2018-11-28T23:50:06.748Z,17.40
2018-11-28T23:52:58.673Z,17.17
2018-11-28T23:56:23.644Z,18.63
2018-11-28T23:59:02.184Z,17.43
